createdAt,value
2023-04-14T00:02:10.126Z,13.52
2023-04-14T00:04:37.445Z,8.68
2023-04-14T00:07:04.222Z,12.48
2023-04-14T00:09:30.815Z,7.57
2023-04-14T00:11:57.763Z,5.53
2023-04-14T00:14:24.429Z,7.63
2023-04-14T00:16:51.176Z,10.07
2023-04-14T00:19:21.416Z,8.05
2023-04-14T00:21:48.304Z,7.15
2023-04-14T00:24:16.168Z,9.48
2023-04-14T00:26:42.843Z,7.55
2023-04-14T00:29:10.237Z,8.10
2023-04-14T00:31:37.067Z,8.10
2023-04-14T00:34:03.752Z,7.50
2023-04-14T00:36:32.186Z,7.30
2023-04-14T00:39:00.438Z,9.23
2023-04-14T00:41:27.298Z,6.63
2023-04-14T00:43:54.623Z,6.25
2023-04-14T00:46:22.755Z,5.03
2023-04-14T00:48:49.727Z,9.88
2023-04-14T00:51:17.156Z,8.88
2023-04-14T00:53:43.760Z,14.10
2023-04-14T00:56:10.982Z,9.88
2023-04-14T00:58:37.774Z,11.68
2023-04-14T01:01:05.925Z,8.40
2023-04-14T01:03:32.858Z,8.07
2023-04-14T01:05:59.702Z,9.90
2023-04-14T01:08:27.115Z,8.23
2023-04-14T01:11:23.753Z,13.90
2023-04-14T01:14:13.184Z,9.23
2023-04-14T01:16:45.451Z,11.00
2023-04-14T01:20:05.333Z,17.00
2023-04-14T01:22:36.703Z,18.23
2023-04-14T01:25:22.349Z,12.65
2023-04-14T01:27:55.002Z,9.75
2023-04-14T01:30:44.262Z,13.60
2023-04-14T01:33:18.742Z,13.15
2023-04-14T01:35:50.374Z,11.88
2023-04-14T01:38:27.478Z,16.20
2023-04-14T01:40:57.454Z,8.52
2023-04-14T01:43:29.320Z,11.45
2023-04-14T01:45:59.376Z,17.25
2023-04-14T01:48:27.130Z,15.75
2023-04-14T01:50:54.578Z,12.70
2023-04-14T01:53:22.298Z,13.07
2023-04-14T01:55:49.708Z,8.93
2023-04-14T01:58:19.380Z,13.93
2023-04-14T02:00:46.674Z,11.85
2023-04-14T02:03:13.661Z,11.40
2023-04-14T02:05:41.623Z,12.00
2023-04-14T02:08:11.580Z,11.73
2023-04-14T02:10:41.917Z,9.35
2023-04-14T02:13:10.960Z,16.65
2023-04-14T02:15:39.896Z,16.08
2023-04-14T02:18:07.467Z,14.38
2023-04-14T02:20:34.310Z,14.50
2023-04-14T02:23:01.091Z,9.25
2023-04-14T02:25:32.680Z,16.85
2023-04-14T02:28:06.826Z,15.82
2023-04-14T02:30:41.617Z,17.60
2023-04-14T02:33:16.073Z,11.98
2023-04-14T02:36:18.252Z,8.80
2023-04-14T02:38:53.361Z,12.10
2023-04-14T02:41:26.144Z,19.40
2023-04-14T02:44:01.813Z,12.05
2023-04-14T02:46:33.607Z,11.93
2023-04-14T02:49:01.995Z,11.60
2023-04-14T02:51:29.710Z,9.45
2023-04-14T02:53:56.605Z,15.18
2023-04-14T02:56:35.073Z,15.57
2023-04-14T02:59:02.759Z,11.75
2023-04-14T03:01:33.184Z,10.68
2023-04-14T03:04:00.812Z,14.38
2023-04-14T03:06:31.752Z,10.07
2023-04-14T03:09:00.445Z,11.48
2023-04-14T03:11:28.803Z,14.80
2023-04-14T03:13:56.235Z,14.80
2023-04-14T03:16:24.261Z,18.20
2023-04-14T03:18:51.305Z,16.10
2023-04-14T03:21:19.255Z,16.70
2023-04-14T03:23:46.809Z,9.38
2023-04-14T03:26:18.319Z,12.38
2023-04-14T03:28:48.415Z,9.65
2023-04-14T03:31:18.860Z,11.05
2023-04-14T03:33:55.588Z,9.25
2023-04-14T03:36:23.353Z,11.15
2023-04-14T03:38:50.347Z,7.35
2023-04-14T03:41:19.703Z,18.75
2023-04-14T03:43:47.620Z,10.77
2023-04-14T03:46:15.365Z,12.60
2023-04-14T03:48:44.396Z,16.30
2023-04-14T03:51:15.875Z,12.43
2023-04-14T03:53:45.249Z,10.95
2023-04-14T03:56:15.276Z,15.68
2023-04-14T03:58:46.459Z,11.68
2023-04-14T04:01:14.864Z,11.45
2023-04-14T04:03:42.590Z,13.48
2023-04-14T04:06:09.680Z,12.73
2023-04-14T04:08:36.493Z,14.18
2023-04-14T04:11:06.219Z,13.75
2023-04-14T04:13:34.200Z,11.52
2023-04-14T04:16:01.668Z,13.48
2023-04-14T04:18:31.195Z,13.88
2023-04-14T04:20:58.802Z,14.38
2023-04-14T04:23:27.840Z,9.80
2023-04-14T04:25:55.009Z,13.43
2023-04-14T04:28:28.648Z,15.07
2023-04-14T04:30:56.588Z,13.93
2023-04-14T04:33:23.282Z,17.08
2023-04-14T04:35:51.541Z,15.55
2023-04-14T04:38:19.460Z,15.00
2023-04-14T04:40:46.492Z,12.95
2023-04-14T04:43:21.837Z,15.27
2023-04-14T04:46:26.339Z,13.35
2023-04-14T04:48:54.255Z,17.15
2023-04-14T04:51:21.245Z,18.63
2023-04-14T04:53:47.898Z,14.38
2023-04-14T04:56:14.644Z,12.32
2023-04-14T04:58:41.514Z,15.50
2023-04-14T05:01:09.490Z,13.18
2023-04-14T05:03:36.795Z,11.40
2023-04-14T05:06:03.929Z,14.15
2023-04-14T05:08:30.662Z,13.48
2023-04-14T05:10:58.809Z,19.30
2023-04-14T05:13:25.837Z,13.98
2023-04-14T05:15:52.495Z,16.50
2023-04-14T05:18:19.543Z,12.95
2023-04-14T05:20:46.382Z,19.52
2023-04-14T05:23:14.155Z,10.77
2023-04-14T05:25:40.829Z,10.50
2023-04-14T05:28:08.269Z,11.98
2023-04-14T05:30:35.017Z,17.30
2023-04-14T05:33:01.761Z,19.38
2023-04-14T05:35:28.602Z,11.52
2023-04-14T05:37:55.261Z,16.10
2023-04-14T05:40:22.595Z,12.90
2023-04-14T05:42:49.354Z,15.50
2023-04-14T05:45:16.263Z,14.95
2023-04-14T05:47:42.969Z,16.05
2023-04-14T05:50:09.871Z,15.88
2023-04-14T05:52:36.505Z,12.00
2023-04-14T05:55:03.205Z,13.48
2023-04-14T05:57:29.973Z,14.32
2023-04-14T05:59:58.323Z,16.40
2023-04-14T06:02:25.761Z,23.92
2023-04-14T06:04:52.742Z,15.65
2023-04-14T06:07:19.500Z,14.55
2023-04-14T06:09:46.541Z,20.52
2023-04-14T06:12:14.110Z,20.48
2023-04-14T06:14:40.817Z,19.02
2023-04-14T06:17:07.449Z,20.90
2023-04-14T06:19:34.146Z,19.15
2023-04-14T06:22:00.921Z,14.05
2023-04-14T06:24:27.611Z,23.90
2023-04-14T06:26:54.258Z,17.75
2023-04-14T06:29:21.272Z,16.77
2023-04-14T06:31:48.020Z,12.20
2023-04-14T06:34:14.717Z,23.88
2023-04-14T06:36:41.384Z,22.20
2023-04-14T06:39:08.040Z,15.00
2023-04-14T06:41:34.699Z,24.00
2023-04-14T06:44:04.147Z,16.35
2023-04-14T06:46:30.925Z,10.07
2023-04-14T06:48:57.591Z,13.63
2023-04-14T06:51:24.268Z,14.68
2023-04-14T06:53:51.494Z,20.80
2023-04-14T06:56:18.152Z,17.05
2023-04-14T06:58:44.869Z,19.75
2023-04-14T07:01:11.729Z,14.82
2023-04-14T07:03:38.577Z,16.50
2023-04-14T07:06:10.307Z,14.82
2023-04-14T07:08:37.724Z,11.57
2023-04-14T07:11:06.305Z,10.48
2023-04-14T07:13:33.718Z,17.42
2023-04-14T07:16:02.315Z,15.02
2023-04-14T07:18:32.561Z,10.82
2023-04-14T07:21:00.169Z,19.08
2023-04-14T07:23:27.511Z,17.08
2023-04-14T07:25:58.895Z,13.90
2023-04-14T07:28:28.084Z,13.85
2023-04-14T07:30:54.849Z,13.80
2023-04-14T07:33:22.553Z,10.02
2023-04-14T07:36:01.261Z,6.43
2023-04-14T07:38:28.671Z,15.68
2023-04-14T07:40:55.634Z,13.68
2023-04-14T07:43:23.175Z,14.77
2023-04-14T07:45:49.917Z,10.02
2023-04-14T07:48:19.487Z,15.98
2023-04-14T07:50:48.338Z,13.52
2023-04-14T07:53:15.016Z,17.42
2023-04-14T07:55:41.785Z,14.27
2023-04-14T07:58:08.436Z,11.50
2023-04-14T08:00:35.725Z,13.75
2023-04-14T08:03:02.653Z,17.27
2023-04-14T08:05:29.455Z,15.48
2023-04-14T08:07:56.179Z,14.27
2023-04-14T08:10:22.794Z,17.45
2023-04-14T08:12:49.458Z,14.85
2023-04-14T08:15:16.805Z,10.75
2023-04-14T08:17:43.549Z,14.50
2023-04-14T08:20:10.740Z,12.13
2023-04-14T08:22:38.083Z,8.85
2023-04-14T08:25:05.042Z,12.80
2023-04-14T08:27:31.927Z,12.15
2023-04-14T08:29:58.725Z,14.05
2023-04-14T08:32:25.427Z,9.35
2023-04-14T08:35:36.067Z,10.70
2023-04-14T08:37:41.923Z,10.13
2023-04-14T08:40:10.294Z,11.98
2023-04-14T08:42:37.348Z,9.35
2023-04-14T08:45:04.463Z,17.88
2023-04-14T08:47:32.125Z,15.57
2023-04-14T08:50:08.059Z,11.80
2023-04-14T08:52:40.358Z,13.13
2023-04-14T08:55:08.203Z,8.02
2023-04-14T08:57:35.157Z,16.02
2023-04-14T09:00:04.900Z,8.73
2023-04-14T09:02:33.605Z,12.15
2023-04-14T09:05:01.035Z,10.68
2023-04-14T09:07:29.952Z,7.03
2023-04-14T09:09:57.830Z,7.95
2023-04-14T09:12:27.274Z,9.98
2023-04-14T09:14:55.203Z,9.73
2023-04-14T09:17:22.170Z,7.72
2023-04-14T09:20:35.395Z,9.13
2023-04-14T09:22:35.779Z,10.27
2023-04-14T09:25:03.417Z,5.72
2023-04-14T09:27:30.149Z,14.23
2023-04-14T09:29:58.490Z,10.48
2023-04-14T09:32:25.992Z,9.55
2023-04-14T09:34:57.773Z,8.88
2023-04-14T09:37:25.790Z,7.10
2023-04-14T09:39:54.224Z,8.20
2023-04-14T09:42:37.366Z,7.65
2023-04-14T09:45:05.777Z,10.38
2023-04-14T09:47:32.894Z,10.50
2023-04-14T09:50:03.306Z,4.60
2023-04-14T09:52:40.341Z,8.70
2023-04-14T09:55:14.304Z,7.95
2023-04-14T09:57:47.297Z,5.30
2023-04-14T10:00:18.008Z,10.18
2023-04-14T10:02:56.383Z,9.25
2023-04-14T10:05:32.976Z,8.68
2023-04-14T10:08:05.397Z,12.48
2023-04-14T10:10:32.574Z,10.40
2023-04-14T10:12:59.871Z,7.55
2023-04-14T10:15:27.330Z,12.65
2023-04-14T10:17:54.156Z,5.40
2023-04-14T10:20:22.290Z,11.68
2023-04-14T10:22:49.817Z,8.15
2023-04-14T10:25:16.624Z,9.05
2023-04-14T10:27:43.864Z,6.63
2023-04-14T10:30:11.341Z,4.90
2023-04-14T10:32:40.524Z,8.95
2023-04-14T10:35:10.127Z,10.35
2023-04-14T10:37:37.646Z,8.73
2023-04-14T10:40:07.233Z,6.45
2023-04-14T10:42:54.803Z,10.18
2023-04-14T10:45:22.027Z,5.70
2023-04-14T10:47:50.048Z,11.25
2023-04-14T10:50:18.293Z,8.65
2023-04-14T10:52:58.897Z,4.50
2023-04-14T10:55:28.080Z,9.55
2023-04-14T10:58:08.810Z,10.18
2023-04-14T11:00:38.208Z,11.57
2023-04-14T11:03:10.556Z,9.88
2023-04-14T11:05:44.645Z,8.13
2023-04-14T11:08:36.881Z,7.80
2023-04-14T11:11:05.231Z,8.75
2023-04-14T11:13:33.213Z,9.95
2023-04-14T11:16:02.832Z,7.57
2023-04-14T11:18:29.487Z,6.57
2023-04-14T11:21:12.097Z,10.38
2023-04-14T11:23:39.177Z,6.85
2023-04-14T11:26:07.474Z,7.38
2023-04-14T11:28:38.986Z,7.72
2023-04-14T11:31:12.111Z,5.70
2023-04-14T11:33:41.127Z,6.65
2023-04-14T11:36:09.694Z,6.80
2023-04-14T11:38:40.273Z,7.95
2023-04-14T11:41:07.489Z,5.80
2023-04-14T11:43:34.497Z,10.77
2023-04-14T11:46:02.043Z,17.20
2023-04-14T11:48:30.684Z,8.95
2023-04-14T11:51:03.116Z,6.93
2023-04-14T11:53:29.842Z,11.80
2023-04-14T11:55:57.708Z,7.22
2023-04-14T11:58:28.776Z,8.05
2023-04-14T12:00:57.613Z,12.95
2023-04-14T12:03:29.355Z,9.95
2023-04-14T12:06:01.382Z,6.53
2023-04-14T12:08:32.801Z,7.88
2023-04-14T12:11:11.902Z,7.50
2023-04-14T12:13:42.448Z,4.50
2023-04-14T12:16:09.917Z,10.32
2023-04-14T12:18:36.738Z,10.25
2023-04-14T12:21:06.328Z,4.18
2023-04-14T12:23:45.671Z,7.22
2023-04-14T12:26:12.521Z,7.47
2023-04-14T12:28:41.397Z,8.13
2023-04-14T12:31:09.194Z,8.90
2023-04-14T12:33:36.031Z,7.55
2023-04-14T12:36:05.206Z,7.93
2023-04-14T12:38:32.913Z,5.00
2023-04-14T12:41:00.463Z,5.38
2023-04-14T12:43:35.489Z,5.80
2023-04-14T12:46:05.819Z,8.60
2023-04-14T12:48:44.284Z,5.80
2023-04-14T12:51:12.965Z,8.30
2023-04-14T12:53:41.526Z,6.97
2023-04-14T12:56:17.508Z,6.68
2023-04-14T12:58:47.037Z,8.75
2023-04-14T13:01:15.632Z,7.90
2023-04-14T13:03:45.794Z,7.97
2023-04-14T13:06:17.920Z,6.20
2023-04-14T13:08:46.932Z,7.22
2023-04-14T13:11:14.630Z,6.50
2023-04-14T13:13:42.562Z,6.82
2023-04-14T13:16:14.689Z,8.55
2023-04-14T13:18:42.738Z,5.15
2023-04-14T13:21:10.287Z,7.15
2023-04-14T13:23:37.012Z,12.10
2023-04-14T13:26:03.979Z,8.10
2023-04-14T13:28:30.666Z,5.45
2023-04-14T13:30:58.070Z,6.50
2023-04-14T13:33:25.727Z,14.27
2023-04-14T13:35:53.731Z,10.23
2023-04-14T13:38:24.583Z,6.68
2023-04-14T13:40:51.990Z,9.65
2023-04-14T13:43:19.213Z,10.85
2023-04-14T13:45:46.404Z,13.35
2023-04-14T13:48:13.826Z,5.03
2023-04-14T13:50:40.700Z,10.32
2023-04-14T13:53:07.527Z,9.05
2023-04-14T13:55:35.584Z,7.85
2023-04-14T13:58:02.331Z,5.00
2023-04-14T14:00:29.111Z,7.40
2023-04-14T14:02:55.930Z,9.40
2023-04-14T14:05:22.688Z,8.00
2023-04-14T14:07:49.386Z,6.10
2023-04-14T14:10:16.096Z,12.82
2023-04-14T14:12:42.753Z,13.90
2023-04-14T14:15:09.828Z,9.40
2023-04-14T14:17:37.263Z,8.40
2023-04-14T14:20:04.590Z,6.82
2023-04-14T14:22:31.443Z,6.97
2023-04-14T14:25:10.639Z,6.95
2023-04-14T14:27:37.950Z,9.25
2023-04-14T14:30:05.038Z,6.90
2023-04-14T14:32:32.668Z,8.13
2023-04-14T14:34:59.373Z,8.05
2023-04-14T14:37:27.192Z,9.27
2023-04-14T14:39:54.397Z,8.75
2023-04-14T14:42:21.933Z,9.95
2023-04-14T14:44:48.554Z,6.05
2023-04-14T14:47:15.325Z,8.02
2023-04-14T14:49:52.992Z,6.25
2023-04-14T14:52:30.038Z,7.63
2023-04-14T14:54:56.889Z,8.88
2023-04-14T14:57:23.732Z,8.55
2023-04-14T14:59:50.565Z,9.93
2023-04-14T15:02:19.444Z,8.65
2023-04-14T15:04:46.723Z,6.90
2023-04-14T15:07:13.565Z,6.47
2023-04-14T15:09:40.467Z,10.48
2023-04-14T15:12:08.258Z,7.25
2023-04-14T15:14:35.023Z,11.18
2023-04-14T15:17:02.501Z,4.40
2023-04-14T15:19:29.264Z,6.82
2023-04-14T15:21:55.983Z,8.02
2023-04-14T15:24:22.824Z,6.95
2023-04-14T15:26:49.466Z,11.80
2023-04-14T15:29:16.667Z,11.35
2023-04-14T15:31:43.364Z,13.98
2023-04-14T15:34:11.017Z,12.02
2023-04-14T15:36:38.016Z,5.70
2023-04-14T15:39:04.789Z,7.35
2023-04-14T15:41:31.655Z,7.43
2023-04-14T15:43:59.468Z,9.63
2023-04-14T15:46:27.815Z,6.10
2023-04-14T15:49:03.412Z,7.80
2023-04-14T15:51:30.226Z,7.85
2023-04-14T15:53:56.937Z,7.85
2023-04-14T15:56:24.497Z,8.52
2023-04-14T15:58:51.437Z,12.70
2023-04-14T16:01:18.656Z,10.15
2023-04-14T16:03:45.656Z,8.63
2023-04-14T16:06:12.744Z,10.60
2023-04-14T16:08:39.467Z,9.57
2023-04-14T16:11:06.207Z,8.07
2023-04-14T16:13:33.142Z,6.95
2023-04-14T16:15:59.856Z,10.85
2023-04-14T16:18:26.730Z,7.45
2023-04-14T16:20:53.635Z,8.90
2023-04-14T16:23:20.707Z,7.03
2023-04-14T16:25:50.698Z,10.38
2023-04-14T16:28:17.638Z,7.70
2023-04-14T16:33:27.686Z,8.77
2023-04-14T16:35:57.252Z,9.63
2023-04-14T16:41:07.786Z,5.97
2023-04-14T16:43:34.606Z,8.23
2023-04-14T16:46:07.136Z,6.78
2023-04-14T16:48:35.900Z,6.82
2023-04-14T16:51:10.532Z,5.20
2023-04-14T16:53:39.219Z,8.27
2023-04-14T16:56:07.406Z,10.35
2023-04-14T16:58:34.826Z,8.20
2023-04-14T17:01:02.332Z,7.05
2023-04-14T17:03:29.846Z,7.53
2023-04-14T17:05:57.263Z,8.73
2023-04-14T17:08:24.098Z,5.43
2023-04-14T17:10:50.850Z,5.25
2023-04-14T17:13:17.731Z,5.07
2023-04-14T17:15:44.420Z,9.00
2023-04-14T17:18:12.110Z,11.60
2023-04-14T17:20:40.048Z,8.15
2023-04-14T17:23:08.238Z,10.57
2023-04-14T17:25:39.290Z,9.15
2023-04-14T17:28:06.193Z,6.55
2023-04-14T17:30:34.728Z,8.80
2023-04-14T17:33:03.865Z,5.05
2023-04-14T17:35:34.628Z,5.53
2023-04-14T17:38:01.606Z,9.32
2023-04-14T17:40:28.750Z,9.43
2023-04-14T17:42:56.355Z,6.75
2023-04-14T17:45:24.027Z,12.85
2023-04-14T17:47:53.576Z,11.00
2023-04-14T17:50:24.209Z,9.45
2023-04-14T17:52:51.468Z,12.38
2023-04-14T17:55:18.492Z,16.80
2023-04-14T17:57:46.374Z,11.70
2023-04-14T18:00:14.997Z,12.35
2023-04-14T18:02:42.989Z,12.15
2023-04-14T18:05:11.367Z,11.20
2023-04-14T18:07:38.416Z,17.85
2023-04-14T18:10:06.453Z,13.18
2023-04-14T18:12:33.367Z,16.38
2023-04-14T18:15:00.085Z,12.77
2023-04-14T18:17:26.849Z,10.48
2023-04-14T18:19:56.230Z,6.75
2023-04-14T18:22:23.054Z,12.45
2023-04-14T18:24:51.026Z,8.88
2023-04-14T18:29:47.768Z,14.65
2023-04-14T18:32:14.551Z,8.70
2023-04-14T18:34:41.262Z,11.77
2023-04-14T18:37:08.006Z,13.65
2023-04-14T18:39:36.900Z,11.00
2023-04-14T18:42:04.597Z,8.77
2023-04-14T18:44:31.233Z,9.60
2023-04-14T18:46:58.053Z,11.57
2023-04-14T18:49:25.084Z,15.18
2023-04-14T18:51:53.299Z,13.23
2023-04-14T18:54:21.329Z,42.47
2023-04-14T18:56:48.474Z,41.67
2023-04-14T18:59:15.140Z,41.63
2023-04-14T19:01:41.911Z,35.65
2023-04-14T19:04:09.285Z,39.78
2023-04-14T19:06:36.635Z,31.13
2023-04-14T19:09:04.712Z,21.55
2023-04-14T19:11:36.141Z,15.18
2023-04-14T19:14:04.695Z,15.95
2023-04-14T19:16:32.078Z,14.70
2023-04-14T19:18:59.978Z,13.00
2023-04-14T19:21:27.243Z,19.25
2023-04-14T19:23:56.535Z,14.43
2023-04-14T19:26:24.170Z,13.63
2023-04-14T19:28:54.000Z,13.55
2023-04-14T19:31:21.643Z,13.65
2023-04-14T19:33:49.125Z,12.77
2023-04-14T19:36:17.362Z,13.32
2023-04-14T19:38:44.751Z,15.60
2023-04-14T19:41:11.813Z,11.27
2023-04-14T19:43:38.600Z,12.55
2023-04-14T19:46:05.848Z,14.27
2023-04-14T19:48:33.113Z,19.17
2023-04-14T19:51:01.908Z,16.35
2023-04-14T19:53:28.858Z,10.93
2023-04-14T19:55:58.209Z,13.50
2023-04-14T19:58:26.879Z,12.85
2023-04-14T20:00:56.232Z,13.30
2023-04-14T20:03:24.182Z,16.02
2023-04-14T20:05:53.102Z,9.35
2023-04-14T20:08:20.777Z,9.80
2023-04-14T20:10:51.377Z,12.98
2023-04-14T20:13:22.717Z,23.55
2023-04-14T20:15:51.716Z,18.77
2023-04-14T20:18:18.566Z,11.77
2023-04-14T20:20:46.274Z,11.95
2023-04-14T20:23:13.021Z,11.45
2023-04-14T20:25:40.056Z,11.60
2023-04-14T20:28:07.817Z,10.07
2023-04-14T20:30:34.783Z,7.80
2023-04-14T20:33:05.655Z,7.32
2023-04-14T20:35:35.702Z,13.00
2023-04-14T20:38:02.610Z,8.82
2023-04-14T20:40:30.307Z,8.57
2023-04-14T20:42:58.659Z,11.10
2023-04-14T20:45:25.353Z,12.82
2023-04-14T20:47:52.437Z,12.07
2023-04-14T20:50:19.553Z,10.60
2023-04-14T20:52:46.877Z,12.23
2023-04-14T20:55:13.721Z,10.63
2023-04-14T20:57:42.301Z,13.85
2023-04-14T21:00:18.998Z,13.25
2023-04-14T21:02:47.446Z,14.43
2023-04-14T21:05:19.043Z,7.28
2023-04-14T21:07:46.124Z,6.60
2023-04-14T21:10:13.828Z,7.65
2023-04-14T21:12:41.594Z,11.18
2023-04-14T21:15:53.864Z,8.75
2023-04-14T21:18:14.857Z,11.40
2023-04-14T21:20:43.455Z,14.35
2023-04-14T21:23:10.263Z,9.32
2023-04-14T21:25:37.107Z,9.65
2023-04-14T21:28:03.878Z,9.77
2023-04-14T21:30:31.575Z,9.20
2023-04-14T21:32:58.550Z,9.48
2023-04-14T21:35:25.908Z,12.43
2023-04-14T21:37:52.932Z,9.63
2023-04-14T21:40:20.303Z,9.50
2023-04-14T21:42:47.009Z,9.13
2023-04-14T21:45:14.388Z,10.07
2023-04-14T21:47:41.945Z,10.23
2023-04-14T21:50:09.609Z,10.32
2023-04-14T21:52:36.442Z,10.07
2023-04-14T21:55:03.316Z,9.15
2023-04-14T21:57:44.363Z,11.10
2023-04-14T22:00:17.736Z,9.00
2023-04-14T22:02:45.360Z,15.50
2023-04-14T22:05:13.319Z,11.35
2023-04-14T22:07:40.214Z,11.63
2023-04-14T22:10:07.540Z,11.32
2023-04-14T22:12:36.033Z,8.73
2023-04-14T22:15:03.851Z,11.00
2023-04-14T22:17:31.259Z,10.98
2023-04-14T22:19:59.202Z,10.30
2023-04-14T22:22:25.913Z,9.60
2023-04-14T22:24:54.594Z,9.73
2023-04-14T22:27:22.290Z,10.35
2023-04-14T22:29:49.038Z,14.85
2023-04-14T22:32:16.236Z,11.65
2023-04-14T22:34:43.816Z,10.10
2023-04-14T22:37:10.724Z,10.70
2023-04-14T22:39:38.022Z,10.25
2023-04-14T22:42:04.659Z,12.55
2023-04-14T22:44:31.536Z,10.98
2023-04-14T22:46:59.785Z,10.88
2023-04-14T22:49:27.663Z,10.07
2023-04-14T22:51:56.429Z,13.90
2023-04-14T22:54:23.073Z,9.68
2023-04-14T22:56:51.305Z,9.25
2023-04-14T22:59:17.992Z,14.43
2023-04-14T23:01:44.683Z,11.35
2023-04-14T23:04:11.532Z,11.23
2023-04-14T23:06:38.436Z,12.43
2023-04-14T23:09:05.660Z,11.30
2023-04-14T23:11:33.754Z,11.82
2023-04-14T23:14:00.545Z,13.57
2023-04-14T23:16:27.525Z,11.80
2023-04-14T23:18:54.289Z,16.10
2023-04-14T23:21:23.856Z,14.18
2023-04-14T23:23:51.089Z,9.93
2023-04-14T23:26:19.542Z,11.88
2023-04-14T23:28:46.708Z,12.23
2023-04-14T23:31:13.706Z,20.15
2023-04-14T23:33:40.413Z,8.98
2023-04-14T23:36:07.787Z,15.05
2023-04-14T23:38:34.664Z,12.23
2023-04-14T23:41:01.534Z,14.02
2023-04-14T23:43:29.080Z,13.65
2023-04-14T23:45:55.923Z,12.38
2023-04-14T23:48:22.703Z,15.27
2023-04-14T23:51:01.339Z,14.27
2023-04-14T23:53:36.228Z,14.65
2023-04-14T23:56:03.834Z,15.65
2023-04-14T23:58:30.708Z,12.88
